createdAt,value
2023-01-15T00:02:13.051Z,95039.13
2023-01-15T00:05:09.921Z,95034.25
2023-01-15T00:08:06.696Z,95023.13
2023-01-15T00:11:04.484Z,95018.28
2023-01-15T00:14:01.360Z,95024.69
2023-01-15T00:16:58.146Z,95001.31
2023-01-15T00:19:54.947Z,94992.38
2023-01-15T00:22:51.739Z,94979.94
2023-01-15T00:26:07.026Z,94991.75
2023-01-15T00:29:04.122Z,94986.78
2023-01-15T00:32:03.203Z,94988.56
2023-01-15T00:35:00.554Z,94985.81
2023-01-15T00:37:57.323Z,94994.50
2023-01-15T00:40:54.075Z,94987.31
2023-01-15T00:43:51.013Z,94986.53
2023-01-15T00:46:48.339Z,94972.63
2023-01-15T00:49:45.289Z,94973.22
2023-01-15T00:52:42.300Z,94963.03
2023-01-15T00:55:39.092Z,94960.47
2023-01-15T00:58:35.855Z,94977.41
2023-01-15T01:01:32.916Z,94977.84
2023-01-15T01:04:29.830Z,94961.28
2023-01-15T01:07:26.641Z,94961.97
2023-01-15T01:10:23.517Z,94948.44
2023-01-15T01:13:20.279Z,94966.94
2023-01-15T01:16:21.941Z,94965.06
2023-01-15T01:19:21.434Z,94962.66
2023-01-15T01:22:18.186Z,94971.66
2023-01-15T01:25:15.067Z,94943.72
2023-01-15T01:28:11.868Z,94933.34
2023-01-15T01:31:09.586Z,94934.06
2023-01-15T01:34:06.869Z,94933.16
2023-01-15T01:37:03.689Z,94933.50
2023-01-15T01:40:00.448Z,94927.56
2023-01-15T01:42:57.224Z,94918.63
2023-01-15T01:45:54.089Z,94905.91
2023-01-15T01:48:54.095Z,94903.94
2023-01-15T01:51:57.567Z,94888.66
2023-01-15T01:54:54.420Z,94899.72
2023-01-15T01:57:54.716Z,94893.03
2023-01-15T02:00:52.569Z,94885.53
2023-01-15T02:03:50.008Z,94880.28
2023-01-15T02:06:46.801Z,94876.66
2023-01-15T02:09:43.645Z,94872.41
2023-01-15T02:12:42.441Z,94877.34
2023-01-15T02:15:47.179Z,94868.09
2023-01-15T02:18:50.211Z,94877.09
2023-01-15T02:22:00.229Z,94868.78
2023-01-15T02:25:19.526Z,94867.34
2023-01-15T02:28:37.678Z,94875.06
2023-01-15T02:31:37.618Z,94860.97
2023-01-15T02:34:36.518Z,94868.50
2023-01-15T02:37:37.151Z,94866.94
2023-01-15T02:40:35.443Z,94869.28
2023-01-15T02:43:35.401Z,94855.16
2023-01-15T02:46:36.005Z,94848.53
2023-01-15T02:49:33.855Z,94842.91
2023-01-15T02:52:35.274Z,94849.63
2023-01-15T02:55:35.098Z,94847.91
2023-01-15T02:58:36.413Z,94837.09
2023-01-15T03:01:41.721Z,94837.09
2023-01-15T03:04:43.812Z,94851.69
2023-01-15T03:07:50.742Z,94846.84
2023-01-15T03:10:56.564Z,94826.78
2023-01-15T03:14:14.425Z,94830.63
2023-01-15T03:17:24.184Z,94828.56
2023-01-15T03:20:25.233Z,94832.34
2023-01-15T03:23:23.785Z,94817.66
2023-01-15T03:26:20.557Z,94824.53
2023-01-15T03:29:17.778Z,94811.47
2023-01-15T03:32:16.290Z,94815.81
2023-01-15T03:35:46.665Z,94821.59
2023-01-15T03:38:46.915Z,94806.22
2023-01-15T03:41:59.939Z,94807.69
2023-01-15T03:45:08.893Z,94806.91
2023-01-15T03:48:16.176Z,94806.13
2023-01-15T03:51:20.081Z,94874.13
2023-01-15T03:54:26.885Z,94855.91
2023-01-15T03:57:35.240Z,94873.94
2023-01-15T04:00:56.608Z,94866.94
2023-01-15T04:03:54.266Z,94866.19
2023-01-15T04:06:51.347Z,94863.88
2023-01-15T04:09:48.381Z,94866.13
2023-01-15T04:12:45.147Z,94871.34
2023-01-15T04:15:41.931Z,94879.09
2023-01-15T04:18:38.681Z,94880.03
2023-01-15T04:21:35.477Z,94882.44
2023-01-15T04:24:32.262Z,94905.75
2023-01-15T04:27:29.078Z,94909.03
2023-01-15T04:30:25.845Z,94890.97
2023-01-15T04:33:22.601Z,94905.06
2023-01-15T04:36:19.630Z,94900.81
2023-01-15T04:39:16.402Z,94905.56
2023-01-15T04:42:32.652Z,94915.41
2023-01-15T04:45:29.433Z,94910.72
2023-01-15T04:48:26.380Z,94914.31
2023-01-15T04:51:23.170Z,94929.47
2023-01-15T04:54:20.301Z,94954.00
2023-01-15T04:57:17.168Z,94950.72
2023-01-15T05:00:14.102Z,94935.56
2023-01-15T05:03:12.212Z,94934.13
2023-01-15T05:06:09.425Z,94938.06
2023-01-15T05:09:06.399Z,94932.06
2023-01-15T05:12:03.268Z,94940.66
2023-01-15T05:15:00.161Z,94945.22
2023-01-15T05:17:57.013Z,94935.69
2023-01-15T05:20:53.813Z,94945.81
2023-01-15T05:23:52.303Z,94964.03
2023-01-15T05:26:49.398Z,94981.06
2023-01-15T05:29:46.220Z,94963.06
2023-01-15T05:32:42.955Z,94971.19
2023-01-15T05:35:39.720Z,94975.44
2023-01-15T05:38:37.071Z,94983.38
2023-01-15T05:41:49.088Z,94979.66
2023-01-15T05:44:45.915Z,94983.69
2023-01-15T05:47:42.667Z,94983.75
2023-01-15T05:50:39.400Z,94991.94
2023-01-15T05:53:36.145Z,94999.63
2023-01-15T05:56:36.272Z,95013.41
2023-01-15T05:59:33.783Z,95019.28
2023-01-15T06:02:35.828Z,95002.47
2023-01-15T06:05:32.589Z,94996.44
2023-01-15T06:08:29.532Z,95006.06
2023-01-15T06:11:26.348Z,95016.41
2023-01-15T06:14:23.140Z,95003.22
2023-01-15T06:17:20.444Z,95017.63
2023-01-15T06:20:17.598Z,95016.59
2023-01-15T06:23:14.424Z,95023.19
2023-01-15T06:26:16.932Z,95022.53
2023-01-15T06:29:17.560Z,95024.66
2023-01-15T06:32:14.392Z,95036.13
2023-01-15T06:35:12.353Z,95051.06
2023-01-15T06:38:09.086Z,95040.66
2023-01-15T06:41:30.002Z,95040.69
2023-01-15T06:44:46.835Z,95056.66
2023-01-15T06:47:43.629Z,95058.44
2023-01-15T06:50:40.378Z,95064.50
2023-01-15T06:53:37.152Z,95066.56
2023-01-15T06:56:33.902Z,95066.66
2023-01-15T06:59:31.119Z,95069.72
2023-01-15T07:02:27.889Z,95088.19
2023-01-15T07:05:24.645Z,95091.75
2023-01-15T07:08:21.373Z,95096.78
2023-01-15T07:11:18.112Z,95101.13
2023-01-15T07:14:28.009Z,95085.25
2023-01-15T07:17:24.726Z,95088.78
2023-01-15T07:20:21.979Z,95094.50
2023-01-15T07:23:18.721Z,95105.81
2023-01-15T07:26:15.503Z,95111.97
2023-01-15T07:29:12.394Z,95093.25
2023-01-15T07:32:09.849Z,95095.16
2023-01-15T07:35:06.710Z,95119.94
2023-01-15T07:38:03.457Z,95121.84
2023-01-15T07:41:19.376Z,95138.63
2023-01-15T07:44:34.751Z,95138.13
2023-01-15T07:47:50.176Z,95129.78
2023-01-15T07:50:47.525Z,95125.44
2023-01-15T07:53:44.265Z,95124.66
2023-01-15T07:56:41.021Z,95129.53
2023-01-15T07:59:37.873Z,95137.47
2023-01-15T08:02:34.616Z,95144.97
2023-01-15T08:05:31.363Z,95163.28
2023-01-15T08:08:28.186Z,95173.34
2023-01-15T08:11:43.650Z,95192.00
2023-01-15T08:14:59.239Z,95190.63
2023-01-15T08:17:56.024Z,95187.00
2023-01-15T08:20:52.791Z,95190.91
2023-01-15T08:23:51.033Z,95195.19
2023-01-15T08:26:48.495Z,95200.84
2023-01-15T08:29:45.323Z,95200.59
2023-01-15T08:32:42.155Z,95197.41
2023-01-15T08:35:38.910Z,95212.63
2023-01-15T08:38:35.659Z,95202.69
2023-01-15T08:41:32.399Z,95209.00
2023-01-15T08:44:29.208Z,95211.25
2023-01-15T08:47:25.967Z,95216.47
2023-01-15T08:50:22.725Z,95206.75
2023-01-15T08:53:19.788Z,95215.34
2023-01-15T08:56:18.927Z,95216.09
2023-01-15T08:59:15.684Z,95217.00
2023-01-15T09:02:14.297Z,95215.53
2023-01-15T09:05:11.071Z,95218.09
2023-01-15T09:08:08.251Z,95214.75
2023-01-15T09:11:06.134Z,95228.53
2023-01-15T09:14:02.875Z,95223.56
2023-01-15T09:16:59.745Z,95232.41
2023-01-15T09:19:56.507Z,95226.66
2023-01-15T09:22:53.263Z,95240.41
2023-01-15T09:26:06.117Z,95234.69
2023-01-15T09:29:04.207Z,95241.44
2023-01-15T09:32:02.667Z,95240.66
2023-01-15T09:34:59.589Z,95244.78
2023-01-15T09:37:56.405Z,95247.81
2023-01-15T09:40:59.489Z,95252.81
2023-01-15T09:44:07.435Z,95256.84
2023-01-15T09:47:34.579Z,95258.41
2023-01-15T09:50:44.168Z,95273.44
2023-01-15T09:54:07.622Z,95279.53
2023-01-15T09:57:07.472Z,95277.25
2023-01-15T10:00:06.200Z,95282.84
2023-01-15T10:03:29.161Z,95277.56
2023-01-15T10:06:29.020Z,95284.53
2023-01-15T10:09:34.985Z,95291.22
2023-01-15T10:12:35.316Z,95285.28
2023-01-15T10:15:46.608Z,95294.47
2023-01-15T10:18:43.556Z,95301.50
2023-01-15T10:22:02.495Z,95288.69
2023-01-15T10:25:01.550Z,95284.94
2023-01-15T10:28:04.345Z,95290.72
2023-01-15T10:31:12.486Z,95296.72
2023-01-15T10:34:33.432Z,95298.03
2023-01-15T10:37:45.876Z,95288.72
2023-01-15T10:41:07.594Z,95302.22
2023-01-15T10:44:30.351Z,95313.06
2023-01-15T10:47:35.270Z,95302.09
2023-01-15T10:50:32.571Z,95328.00
2023-01-15T10:53:34.649Z,95319.56
2023-01-15T10:56:35.833Z,95314.38
2023-01-15T10:59:56.955Z,95317.44
2023-01-15T11:03:15.046Z,95317.09
2023-01-15T11:06:23.227Z,95310.28
2023-01-15T11:09:30.892Z,95323.63
2023-01-15T11:12:48.194Z,95323.22
2023-01-15T11:16:05.599Z,95320.41
2023-01-15T11:19:23.319Z,95331.97
2023-01-15T11:22:20.444Z,95339.19
2023-01-15T11:25:31.521Z,95349.69
2023-01-15T11:28:43.287Z,95346.09
2023-01-15T11:31:41.156Z,95352.25
2023-01-15T11:34:40.295Z,95331.47
2023-01-15T11:37:37.096Z,95320.88
2023-01-15T11:40:34.481Z,95332.63
2023-01-15T11:43:50.483Z,95333.34
2023-01-15T11:47:05.804Z,95337.22
2023-01-15T11:50:21.899Z,95333.25
2023-01-15T11:53:29.328Z,95333.97
2023-01-15T11:56:28.486Z,95326.16
2023-01-15T11:59:25.350Z,95322.69
2023-01-15T12:02:34.564Z,95308.72
2023-01-15T12:05:34.310Z,95317.09
2023-01-15T12:08:53.224Z,95315.91
2023-01-15T12:12:02.684Z,95315.88
2023-01-15T12:14:59.437Z,95325.41
2023-01-15T12:18:07.068Z,95328.84
2023-01-15T12:21:13.406Z,95321.19
2023-01-15T12:24:51.631Z,95303.78
2023-01-15T12:27:59.766Z,95302.09
2023-01-15T12:31:16.449Z,95296.34
2023-01-15T12:34:24.329Z,95285.56
2023-01-15T12:37:26.175Z,95296.00
2023-01-15T12:40:27.515Z,95308.19
2023-01-15T12:43:45.716Z,95297.63
2023-01-15T12:46:44.448Z,95299.28
2023-01-15T12:49:47.422Z,95293.28
2023-01-15T12:52:46.311Z,95299.63
2023-01-15T12:56:07.229Z,95304.50
2023-01-15T12:59:06.178Z,95317.22
2023-01-15T13:02:29.770Z,95317.34
2023-01-15T13:05:32.716Z,95316.09
2023-01-15T13:08:46.295Z,95317.06
2023-01-15T13:11:43.043Z,95330.06
2023-01-15T13:14:40.015Z,95324.44
2023-01-15T13:18:14.592Z,95317.94
2023-01-15T13:21:16.227Z,95326.59
2023-01-15T13:24:41.407Z,95332.63
2023-01-15T13:27:47.563Z,95321.97
2023-01-15T13:31:02.831Z,95327.63
2023-01-15T13:34:04.773Z,95334.06
2023-01-15T13:37:33.968Z,95340.72
2023-01-15T13:40:34.860Z,95347.97
2023-01-15T13:43:39.451Z,95357.19
2023-01-15T13:46:36.221Z,95349.50
2023-01-15T13:49:36.047Z,95348.69
2023-01-15T13:52:37.084Z,95348.63
2023-01-15T13:55:40.284Z,95372.13
2023-01-15T13:58:51.698Z,95363.06
2023-01-15T14:01:48.554Z,95357.50
2023-01-15T14:04:45.418Z,95375.34
2023-01-15T14:07:42.190Z,95383.19
2023-01-15T14:10:39.472Z,95394.47
2023-01-15T14:14:09.329Z,95392.19
2023-01-15T14:17:30.787Z,95394.13
2023-01-15T14:20:37.783Z,95402.50
2023-01-15T14:23:43.380Z,95406.03
2023-01-15T14:26:47.356Z,95403.03
2023-01-15T14:30:03.262Z,95413.59
2023-01-15T14:33:28.520Z,95418.94
2023-01-15T14:36:30.516Z,95414.66
2023-01-15T14:39:40.452Z,95409.88
2023-01-15T14:42:58.960Z,95412.47
2023-01-15T14:45:55.973Z,95426.19
2023-01-15T14:48:52.833Z,95426.25
2023-01-15T14:51:50.780Z,95427.88
2023-01-15T14:54:47.981Z,95429.78
2023-01-15T14:57:57.262Z,95445.16
2023-01-15T15:01:07.308Z,95447.84
2023-01-15T15:04:20.980Z,95450.16
2023-01-15T15:07:27.635Z,95464.50
2023-01-15T15:10:44.883Z,95473.50
2023-01-15T15:13:46.621Z,95473.34
2023-01-15T15:16:50.514Z,95482.59
2023-01-15T15:19:55.335Z,95479.84
2023-01-15T15:22:56.569Z,95483.00
2023-01-15T15:26:05.547Z,95479.47
2023-01-15T15:29:11.266Z,95482.06
2023-01-15T15:32:12.664Z,95468.09
2023-01-15T15:35:25.205Z,95465.53
2023-01-15T15:38:23.691Z,95469.94
2023-01-15T15:41:42.269Z,95471.63
2023-01-15T15:45:18.372Z,95471.59
2023-01-15T15:48:42.819Z,95486.84
2023-01-15T15:51:50.372Z,95471.59
2023-01-15T15:54:57.810Z,95475.56
2023-01-15T15:57:59.521Z,95478.78
2023-01-15T16:00:57.570Z,95463.13
2023-01-15T16:03:55.039Z,95469.28
2023-01-15T16:06:52.127Z,95472.53
2023-01-15T16:09:51.599Z,95489.16
2023-01-15T16:12:51.174Z,95494.41
2023-01-15T16:15:50.323Z,95494.25
2023-01-15T16:18:51.987Z,95486.53
2023-01-15T16:21:49.859Z,95484.28
2023-01-15T16:24:54.778Z,95480.41
2023-01-15T16:27:51.919Z,95484.78
2023-01-15T16:30:56.133Z,95475.78
2023-01-15T16:33:57.899Z,95479.94
2023-01-15T16:36:54.707Z,95487.28
2023-01-15T16:39:51.832Z,95480.78
2023-01-15T16:42:59.015Z,95483.59
2023-01-15T16:45:55.669Z,95489.78
2023-01-15T16:49:24.697Z,95493.19
2023-01-15T16:52:51.530Z,95491.50
2023-01-15T16:55:50.155Z,95493.09
2023-01-15T16:58:47.268Z,95508.03
2023-01-15T17:01:48.469Z,95494.75
2023-01-15T17:04:46.155Z,95509.81
2023-01-15T17:07:47.253Z,95501.81
2023-01-15T17:10:58.251Z,95493.72
2023-01-15T17:14:22.285Z,95489.06
2023-01-15T17:17:21.949Z,95496.88
2023-01-15T17:20:20.574Z,95496.78
2023-01-15T17:23:18.941Z,95508.19
2023-01-15T17:26:18.766Z,95496.38
2023-01-15T17:29:15.607Z,95496.09
2023-01-15T17:32:15.695Z,95497.88
2023-01-15T17:35:28.890Z,95491.09
2023-01-15T17:38:25.617Z,95501.56
2023-01-15T17:41:22.726Z,95499.72
2023-01-15T17:44:19.477Z,95497.69
2023-01-15T17:47:16.282Z,95488.16
2023-01-15T17:50:14.438Z,95497.28
2023-01-15T17:53:11.210Z,95493.81
2023-01-15T17:56:27.205Z,95503.34
2023-01-15T17:59:42.590Z,95487.03
2023-01-15T18:02:59.671Z,95490.03
2023-01-15T18:05:56.486Z,95480.63
2023-01-15T18:08:55.475Z,95488.09
2023-01-15T18:11:52.333Z,95498.22
2023-01-15T18:14:49.520Z,95487.03
2023-01-15T18:17:46.488Z,95495.03
2023-01-15T18:20:43.253Z,95487.19
2023-01-15T18:23:40.702Z,95488.50
2023-01-15T18:26:39.013Z,95487.19
2023-01-15T18:29:40.046Z,95489.88
2023-01-15T18:32:37.721Z,95484.16
2023-01-15T18:35:34.803Z,95487.63
2023-01-15T18:38:33.613Z,95484.78
2023-01-15T18:41:36.331Z,95483.16
2023-01-15T18:44:51.948Z,95490.75
2023-01-15T18:47:50.805Z,95489.75
2023-01-15T18:50:48.983Z,95488.69
2023-01-15T18:53:48.950Z,95488.44
2023-01-15T18:56:48.369Z,95486.94
2023-01-15T18:59:47.380Z,95476.81
2023-01-15T19:02:45.229Z,95487.38
2023-01-15T19:05:42.046Z,95481.13
2023-01-15T19:08:38.807Z,95475.78
2023-01-15T19:11:35.735Z,95473.69
2023-01-15T19:14:51.532Z,95474.78
2023-01-15T19:18:06.853Z,95469.31
2023-01-15T19:21:08.043Z,95466.16
2023-01-15T19:24:05.205Z,95483.38
2023-01-15T19:27:03.088Z,95472.16
2023-01-15T19:30:00.347Z,95475.78
2023-01-15T19:32:57.205Z,95472.63
2023-01-15T19:35:53.970Z,95490.34
2023-01-15T19:38:50.773Z,95473.63
2023-01-15T19:42:06.444Z,95469.03
2023-01-15T19:45:23.936Z,95462.34
2023-01-15T19:48:39.550Z,95471.28
2023-01-15T19:52:05.543Z,95466.50
2023-01-15T19:55:03.970Z,95456.41
2023-01-15T19:58:05.447Z,95455.03
2023-01-15T20:01:02.354Z,95451.41
2023-01-15T20:03:59.300Z,95439.56
2023-01-15T20:06:58.643Z,95437.16
2023-01-15T20:09:55.389Z,95439.09
2023-01-15T20:13:11.194Z,95442.97
2023-01-15T20:16:13.118Z,95431.78
2023-01-15T20:19:09.880Z,95432.84
2023-01-15T20:22:06.757Z,95427.00
2023-01-15T20:25:03.961Z,95414.03
2023-01-15T20:28:00.762Z,95401.88
2023-01-15T20:30:57.632Z,95405.81
2023-01-15T20:33:57.719Z,95396.59
2023-01-15T20:36:54.488Z,95388.66
2023-01-15T20:39:52.372Z,95391.09
2023-01-15T20:43:07.702Z,95401.13
2023-01-15T20:46:12.556Z,95393.44
2023-01-15T20:49:28.908Z,95386.81
2023-01-15T20:52:25.877Z,95394.75
2023-01-15T20:55:24.348Z,95392.84
2023-01-15T20:58:21.343Z,95386.31
2023-01-15T21:01:18.220Z,95387.59
2023-01-15T21:04:15.070Z,95387.41
2023-01-15T21:07:11.853Z,95378.72
2023-01-15T21:10:12.059Z,95371.56
2023-01-15T21:13:08.918Z,95380.81
2023-01-15T21:16:06.250Z,95364.00
2023-01-15T21:19:04.791Z,95358.72
2023-01-15T21:22:01.871Z,95361.09
2023-01-15T21:24:58.961Z,95353.13
2023-01-15T21:27:55.757Z,95354.94
2023-01-15T21:30:52.496Z,95358.75
2023-01-15T21:33:49.265Z,95353.94
2023-01-15T21:36:46.120Z,95357.69
2023-01-15T21:39:42.887Z,95360.00
2023-01-15T21:42:57.866Z,95357.63
2023-01-15T21:46:05.286Z,95348.97
2023-01-15T21:49:02.070Z,95346.00
2023-01-15T21:52:04.090Z,95356.06
2023-01-15T21:55:00.874Z,95346.09
2023-01-15T21:57:58.711Z,95348.50
2023-01-15T22:00:57.136Z,95339.66
2023-01-15T22:03:53.926Z,95330.75
2023-01-15T22:06:51.529Z,95325.47
2023-01-15T22:09:48.350Z,95324.63
2023-01-15T22:12:45.193Z,95314.66
2023-01-15T22:15:41.986Z,95304.91
2023-01-15T22:18:40.836Z,95307.31
2023-01-15T22:21:37.920Z,95302.16
2023-01-15T22:24:36.071Z,95290.28
2023-01-15T22:27:34.602Z,95301.41
2023-01-15T22:30:31.405Z,95288.78
2023-01-15T22:33:28.183Z,95279.00
2023-01-15T22:36:27.004Z,95283.66
2023-01-15T22:39:24.954Z,95282.66
2023-01-15T22:42:24.326Z,95274.63
2023-01-15T22:45:24.754Z,95268.47
2023-01-15T22:48:21.510Z,95279.28
2023-01-15T22:51:18.250Z,95268.88
2023-01-15T22:54:15.021Z,95270.16
2023-01-15T22:57:13.115Z,95273.38
2023-01-15T23:00:11.449Z,95266.03
2023-01-15T23:03:08.655Z,95270.00
2023-01-15T23:06:09.922Z,95258.59
2023-01-15T23:09:06.765Z,95256.88
2023-01-15T23:12:03.610Z,95249.66
2023-01-15T23:15:00.381Z,95249.94
2023-01-15T23:17:57.109Z,95249.94
2023-01-15T23:20:53.857Z,95244.53
2023-01-15T23:23:58.423Z,95236.81
2023-01-15T23:26:55.171Z,95251.13
2023-01-15T23:29:51.920Z,95234.22
2023-01-15T23:32:48.655Z,95238.53
2023-01-15T23:35:46.163Z,95239.41
2023-01-15T23:38:44.292Z,95235.41
2023-01-15T23:41:59.809Z,95228.03
2023-01-15T23:45:15.187Z,95238.38
2023-01-15T23:48:11.958Z,95220.50
2023-01-15T23:51:08.926Z,95233.94
2023-01-15T23:54:05.992Z,95226.63
2023-01-15T23:57:02.880Z,95221.38
2023-01-15T23:59:59.650Z,95207.59
